Terminal Aerodrome Forecast
Issued by NWS

Home | Current Version | Previous Version | Graphics & Text | Print | Product List | Glossary On
Versions: 1 2 3 4 5 6 7 8 9 10 11 12 13 14 15 16 17 18 19
000
FTUS43 KICT 301418 AAA
TAFRSL
TAF AMD
KRSL 301418Z 3014/3112 08005KT P6SM VCSH BKN006
     FM301600 08005KT P6SM VCSH SCT009 BKN015
     FM301800 08005KT P6SM VCSH SCT015 BKN025
     FM302100 08006KT P6SM VCTS SCT025 BKN040CB
     FM310300 09007KT P6SM SCT080 BKN250
     FM310900 04005KT 3SM BR SCT015 BKN040=

USA.gov is the U.S. government's official web portal to all federal, state and local government web resources and services.